Time;durP1;ratioP1;P1;durP2;ratioP2;P2;SDS_P1;SDS_P2;PMS_P1;PMS_P2;Temp;Humidity;BMP_temperature;BMP_pressure;BME280_temperature;BME280_humidity;BME280_pressure;Samples;Min_cycle;Max_cycle;Signal;HPM_P1;HPM_P2
2022/01/16 00:00:40;;;;;;;24.93;13.00;;;4.00;85.30;;;4.54;59.44;99399.03;4981139;28;123049;-88
2022/01/16 00:05:55;;;;;;;25.07;13.90;;;4.00;85.30;;;4.57;59.44;99434.09;4962532;28;119070;-88
2022/01/16 00:08:22;;;;;;;25.23;13.97;;;4.80;86.00;;;4.59;59.04;99420.97;4976160;28;123707;-88
2022/01/16 00:10:49;;;;;;;22.73;12.17;;;4.10;85.30;;;4.62;59.09;99428.66;4975294;28;123299;-88
2022/01/16 00:13:16;;;;;;;21.67;12.50;;;4.10;85.30;;;4.63;59.13;99454.97;4965246;28;120412;-88
2022/01/16 00:15:44;;;;;;;20.10;11.93;;;4.10;85.30;;;4.64;59.21;99440.19;4979150;28;118507;-89
2022/01/16 00:18:26;;;;;;;19.80;11.50;;;4.10;85.30;;;4.65;59.21;99450.06;4984524;28;123713;-88
2022/01/16 00:21:49;;;;;;;23.33;13.70;;;4.10;85.20;;;4.63;58.82;99450.31;4973074;28;122950;-88
2022/01/16 00:24:36;;;;;;;20.40;12.40;;;4.10;85.20;;;4.59;59.24;99442.84;4985445;28;118497;-88
2022/01/16 00:27:04;;;;;;;21.90;12.23;;;4.10;85.20;;;4.55;59.14;99433.53;4982884;28;118075;-88
2022/01/16 00:29:50;;;;;;;22.90;14.33;;;4.10;85.20;;;4.56;59.01;99437.91;4965900;28;122967;-88
2022/01/16 00:32:35;;;;;;;22.83;12.97;;;4.00;85.10;;;4.52;59.33;99455.94;4960389;28;123191;-88
2022/01/16 00:35:05;;;;;;;21.00;12.77;;;4.00;85.20;;;4.47;59.23;99418.38;4961067;28;119404;-88
2022/01/16 00:41:17;;;;;;;22.30;12.40;;;4.00;85.20;;;4.46;59.54;99435.03;4970357;28;123970;-88
2022/01/16 00:43:47;;;;;;;21.17;11.37;;;4.00;85.00;;;4.47;59.23;99447.66;4984195;28;123920;-88
2022/01/16 00:46:13;;;;;;;25.20;13.30;;;4.00;85.10;;;4.49;59.13;99445.50;4967292;28;118737;-89
2022/01/16 00:48:40;;;;;;;25.03;14.67;;;4.00;85.10;;;4.49;59.10;99442.78;4968203;28;118450;-89
2022/01/16 00:51:26;;;;;;;25.93;13.43;;;4.00;85.10;;;4.53;58.95;99432.94;4956595;28;122057;-88
2022/01/16 00:54:12;;;;;;;28.80;15.87;;;4.00;85.10;;;4.49;59.19;99443.59;4971131;28;122007;-88
2022/01/16 00:56:39;;;;;;;26.67;15.07;;;4.00;85.20;;;4.47;59.02;99458.59;4988604;28;118691;-87
2022/01/16 00:59:06;;;;;;;27.30;14.93;;;3.90;85.10;;;4.46;59.12;99462.41;4988267;28;117992;-87
2022/01/16 01:01:32;;;;;;;24.60;14.20;;;3.90;85.10;;;4.47;59.43;99470.38;4954462;28;123643;-89
2022/01/16 01:04:19;;;;;;;28.73;15.20;;;3.90;85.10;;;4.49;59.29;99475.59;4982848;28;122909;-88
2022/01/16 01:06:50;;;;;;;23.90;12.40;;;4.00;85.20;;;4.46;58.99;99467.88;4953057;28;118440;-88
2022/01/16 01:09:56;;;;;;;20.40;12.43;;;4.00;85.20;;;4.52;58.69;99464.16;4988662;28;119513;-87
2022/01/16 01:12:55;;;;;;;23.13;13.00;;;4.00;85.30;;;4.50;59.08;99466.31;4978741;28;123518;-88
2022/01/16 01:15:29;;;;;;;24.07;13.80;;;3.90;85.10;;;4.46;58.85;99478.81;4974106;28;124101;-88
2022/01/16 01:17:56;;;;;;;23.37;12.53;;;4.00;85.20;;;4.46;58.83;99470.63;4954691;28;119363;-88
2022/01/16 01:21:02;;;;;;;25.13;13.33;;;4.00;85.20;;;4.49;58.71;99415.41;4969078;28;118491;-88
2022/01/16 01:23:30;;;;;;;23.77;13.93;;;3.90;85.20;;;4.43;59.36;99357.03;5003134;28;123784;-88
2022/01/16 01:25:57;;;;;;;25.53;15.00;;;3.90;85.20;;;4.45;58.96;99356.81;4989210;28;122207;-88
2022/01/16 01:29:05;;;;;;;22.90;13.70;;;3.90;85.20;;;4.46;59.58;99377.59;4956905;28;117341;-88
2022/01/16 01:31:33;;;;;;;21.60;13.60;;;3.90;85.30;;;4.40;59.11;99377.53;4990314;28;118644;-88
2022/01/16 01:34:00;;;;;;;24.27;12.73;;;3.90;85.30;;;4.41;59.58;99378.38;4971169;28;123495;-88
2022/01/16 01:36:48;;;;;;;23.87;12.43;;;3.90;85.30;;;4.46;58.92;99421.38;4964496;28;123147;-88
2022/01/16 01:39:54;;;;;;;21.10;12.50;;;3.90;85.30;;;4.46;59.39;99443.25;4974552;28;118969;-88
2022/01/16 01:43:00;;;;;;;24.20;14.27;;;3.90;85.30;;;4.42;58.54;99449.25;4991137;28;118974;-88
2022/01/16 01:52:16;;;;;;;24.67;14.80;;;3.90;85.30;;;4.37;59.50;99467.50;4992914;28;119404;-87
2022/01/16 01:54:44;;;;;;;23.40;13.60;;;3.90;85.40;;;4.31;59.32;99469.38;4992894;28;118900;-88
2022/01/16 01:57:11;;;;;;;27.47;14.90;;;3.90;85.40;;;4.32;59.51;99462.78;5000943;28;123883;-88
2022/01/16 01:59:39;;;;;;;25.80;14.17;;;3.90;85.50;;;4.32;59.38;99446.38;4970625;28;122970;-89
2022/01/16 02:02:07;;;;;;;26.80;15.60;;;3.90;85.50;;;4.34;59.48;99468.84;4991464;28;118473;-88
2022/01/16 02:04:37;;;;;;;26.90;14.63;;;3.90;85.60;;;4.36;59.22;99477.63;4991144;28;119872;-88
2022/01/16 02:07:04;;;;;;;26.70;15.03;;;4.00;85.70;;;4.36;59.52;99483.09;4976024;28;121895;-88
2022/01/16 02:10:29;;;;;;;28.30;15.83;;;3.90;85.60;;;4.37;59.69;99486.66;4970873;28;123366;-88
2022/01/16 02:13:03;;;;;;;25.53;15.00;;;3.90;85.70;;;4.33;59.70;99494.56;4981286;28;119766;-88
2022/01/16 02:35:12;;;;;;;33.63;15.80;;;3.70;85.80;;;4.12;59.99;99470.78;4992163;28;118880;-88
2022/01/16 02:37:41;;;;;;;29.07;15.57;;;3.70;85.90;;;4.07;60.43;99474.25;4988961;28;119277;-89
2022/01/16 02:40:28;;;;;;;34.17;18.30;;;3.60;85.90;;;4.05;60.41;99483.78;4961881;28;121746;-88
2022/01/16 02:43:17;;;;;;;28.17;15.87;;;3.60;86.20;;;3.96;60.21;99469.72;4977030;28;123074;-88
2022/01/16 02:45:58;;;;;;;30.50;16.10;;;4.90;87.40;;;3.93;60.35;99451.09;4993474;28;119931;-88
2022/01/16 02:49:14;;;;;;;28.90;15.97;;;3.50;86.20;;;3.93;60.25;99449.19;4990362;28;118798;-88
2022/01/16 02:55:25;;;;;;;26.93;14.40;;;3.50;86.30;;;3.87;60.52;99442.00;4975184;28;124067;-88
2022/01/16 02:58:29;;;;;;;27.90;14.53;;;3.50;86.40;;;3.90;60.44;99446.97;5000633;28;118904;-88
2022/01/16 03:01:34;;;;;;;26.47;13.87;;;3.40;86.40;;;3.87;60.54;99452.09;4989190;28;119934;-85
2022/01/16 03:04:02;;;;;;;30.83;16.37;;;3.40;86.50;;;3.82;60.75;99436.47;4980983;28;124153;-88
2022/01/16 03:06:29;;;;;;;29.30;16.53;;;3.40;86.60;;;3.84;60.69;99441.66;4989538;28;122696;-88
2022/01/16 03:09:15;;;;;;;26.97;15.67;;;3.40;86.70;;;3.89;60.33;99437.09;4990492;28;119125;-88
2022/01/16 03:11:49;;;;;;;30.97;16.20;;;3.40;86.70;;;3.87;60.75;99433.81;4991768;28;118640;-88
2022/01/16 03:14:34;;;;;;;27.20;15.40;;;3.40;86.80;;;3.89;60.39;99437.09;4992037;28;124825;-87
2022/01/16 03:17:02;;;;;;;28.73;15.13;;;3.40;86.90;;;3.84;60.65;99437.06;4992446;28;123190;-89
2022/01/16 03:22:35;;;;;;;24.77;14.00;;;3.40;86.80;;;3.82;60.62;99428.28;5012986;28;119653;-88
2022/01/16 03:32:27;;;;;;;23.63;13.40;;;3.30;86.90;;;3.68;60.57;99414.16;4995044;28;119660;-88
2022/01/16 03:34:55;;;;;;;28.20;15.53;;;3.30;86.90;;;3.72;61.25;99417.19;4991021;28;118827;-88
2022/01/16 03:37:22;;;;;;;23.20;13.97;;;3.30;87.10;;;3.74;60.69;99429.53;4973237;28;123540;-89
2022/01/16 03:40:12;;;;;;;25.70;13.63;;;3.30;87.20;;;3.79;60.66;99426.06;4973783;28;123122;-87
2022/01/16 03:42:39;;;;;;;26.20;14.63;;;3.20;87.10;;;3.73;60.83;99435.22;4971847;28;118778;-87
2022/01/16 03:45:09;;;;;;;27.70;14.43;;;3.30;87.00;;;3.70;60.77;99431.09;4989559;28;117134;-87
2022/01/16 03:48:33;;;;;;;24.63;14.83;;;3.30;86.90;;;3.69;60.47;99436.84;4976526;28;123068;-85
2022/01/16 03:51:02;;;;;;;24.47;13.80;;;3.20;86.80;;;3.63;60.67;99433.22;4979638;28;122718;-88
2022/01/16 03:53:50;;;;;;;23.20;13.50;;;3.20;86.80;;;3.64;60.80;99421.19;4985564;28;119656;-88
2022/01/16 03:56:35;;;;;;;26.93;13.60;;;3.20;86.90;;;3.65;60.78;99428.28;4992087;28;120697;-87
2022/01/16 03:59:21;;;;;;;23.60;13.13;;;3.20;86.90;;;3.68;60.64;99437.91;4971685;28;123364;-87
2022/01/16 04:02:06;;;;;;;23.60;12.37;;;3.20;86.90;;;3.71;60.30;99442.88;4968031;28;122332;-89
2022/01/16 04:04:34;;;;;;;29.93;14.90;;;3.20;87.00;;;3.69;60.45;99445.03;4975627;28;119577;-88
2022/01/16 04:07:03;;;;;;;22.20;13.00;;;3.20;86.90;;;3.71;60.97;99438.25;4971765;28;118529;-87
2022/01/16 04:09:29;;;;;;;22.40;12.80;;;3.20;86.90;;;3.73;60.83;99446.16;4988895;28;123823;-86
2022/01/16 04:12:00;;;;;;;28.97;15.10;;;3.20;86.90;;;3.76;60.29;99448.41;4989981;28;123494;-88
2022/01/16 04:17:23;;;;;;;24.70;13.63;;;3.30;86.90;;;3.79;60.35;99441.59;4993488;28;119210;-88
2022/01/16 04:20:29;;;;;;;27.87;14.70;;;3.20;86.80;;;3.80;60.54;99444.09;4973761;28;123781;-89
2022/01/16 04:22:55;;;;;;;30.53;13.83;;;3.30;86.90;;;3.76;60.41;99448.41;4974350;28;123196;-87
2022/01/16 04:25:59;;;;;;;26.07;13.67;;;3.30;86.80;;;3.74;60.42;99447.84;4985146;28;119099;-86
2022/01/16 04:28:27;;;;;;;26.27;13.47;;;3.20;86.70;;;3.67;60.34;99448.00;4991137;28;118899;-89
2022/01/16 04:31:52;;;;;;;25.23;13.23;;;3.20;86.60;;;3.69;60.20;99434.09;4990596;28;123655;-88
2022/01/16 04:34:21;;;;;;;27.53;13.67;;;3.20;86.70;;;3.63;60.81;99429.66;4977707;28;122742;-87
2022/01/16 04:37:08;;;;;;;25.30;13.47;;;3.20;86.60;;;3.64;60.77;99420.38;4987993;28;118681;-89
2022/01/16 04:39:36;;;;;;;23.03;13.67;;;3.20;86.70;;;3.60;60.85;99430.97;4980896;28;118456;-89
2022/01/16 04:44:55;;;;;;;22.20;11.73;;;3.20;86.80;;;3.63;60.67;99424.19;5006408;28;124209;-88
2022/01/16 04:47:42;;;;;;;22.73;12.90;;;3.20;86.80;;;3.67;60.26;99415.22;5007878;28;119477;-85
2022/01/16 04:50:47;;;;;;;22.73;12.53;;;3.20;86.90;;;3.68;60.60;99426.97;4986339;28;119484;-86
2022/01/16 04:53:13;;;;;;;22.03;12.07;;;3.20;87.00;;;3.64;60.71;99431.28;4988837;28;123495;-88
2022/01/16 04:55:43;;;;;;;20.13;11.63;;;3.20;86.90;;;3.59;60.52;99442.97;4990293;28;123897;-86
2022/01/16 04:58:09;;;;;;;23.53;13.20;;;3.10;86.80;;;3.54;60.48;99431.97;4987370;28;119227;-85
2022/01/16 05:00:41;;;;;;;27.30;14.50;;;3.10;86.70;;;3.50;60.92;99431.66;4991275;28;118593;-89
2022/01/16 05:03:29;;;;;;;22.00;12.33;;;3.10;86.80;;;3.44;60.72;99437.25;4960717;28;122502;-89
2022/01/16 05:05:57;;;;;;;25.23;12.60;;;3.00;86.60;;;3.36;60.77;99445.88;4981714;28;123426;-89
2022/01/16 05:08:43;;;;;;;23.20;13.77;;;3.00;87.30;;;3.34;60.79;99448.06;4958488;28;117565;-88
2022/01/16 05:11:11;;;;;;;18.97;11.60;;;2.90;86.60;;;3.27;61.08;99434.56;4963178;28;118503;-87
2022/01/16 05:18:54;;;;;;;18.30;10.37;;;2.80;86.50;;;3.17;61.29;99442.56;4991527;28;119269;-88
2022/01/16 05:21:44;;;;;;;20.73;11.77;;;2.80;86.60;;;3.21;60.95;99432.84;4990083;28;118655;-88
2022/01/16 05:25:08;;;;;;;24.90;13.80;;;2.80;86.80;;;3.20;60.87;99431.19;4959179;28;123361;-89
2022/01/16 05:27:35;;;;;;;20.40;12.13;;;2.80;86.90;;;3.14;60.74;99426.69;4985967;28;123384;-88
2022/01/16 05:30:22;;;;;;;21.80;12.13;;;2.70;86.80;;;3.16;60.87;99422.66;4971960;28;118568;-88
2022/01/16 05:32:49;;;;;;;16.07;10.77;;;2.70;86.90;;;3.13;61.09;99430.50;4975583;28;118410;-88
2022/01/16 05:35:18;;;;;;;20.77;12.20;;;2.70;86.80;;;3.12;61.05;99421.50;4984151;28;123306;-89
2022/01/16 05:37:46;;;;;;;19.93;11.43;;;2.70;86.80;;;3.12;61.06;99428.84;4991456;28;123381;-88
2022/01/16 05:40:13;;;;;;;21.83;12.50;;;2.70;86.90;;;3.13;60.88;99433.25;4993102;28;118265;-88
2022/01/16 05:43:19;;;;;;;18.47;11.70;;;2.70;86.90;;;3.19;60.48;99448.63;4991447;28;119331;-88
2022/01/16 05:45:49;;;;;;;20.33;11.70;;;2.70;87.00;;;3.17;60.62;99450.78;4996055;28;122979;-89
2022/01/16 05:48:17;;;;;;;20.93;12.47;;;2.70;86.90;;;3.14;60.94;99454.00;4997820;28;123502;-88
2022/01/16 05:50:45;;;;;;;24.63;12.63;;;3.20;87.30;;;3.14;60.92;99456.72;4991557;28;119225;-89
2022/01/16 05:53:30;;;;;;;18.10;10.50;;;2.70;87.50;;;3.17;60.51;99450.78;4990411;28;118519;-89
2022/01/16 05:55:59;;;;;;;20.77;11.80;;;2.70;86.80;;;3.15;60.88;99455.69;5007408;28;123724;-85
2022/01/16 05:58:45;;;;;;;18.80;12.20;;;2.70;86.80;;;3.15;60.51;99451.03;4991828;28;123124;-88
2022/01/16 06:01:11;;;;;;;17.13;11.10;;;2.70;86.80;;;3.13;60.89;99452.34;4983211;28;118437;-88
2022/01/16 06:03:38;;;;;;;19.00;11.50;;;2.60;86.70;;;3.13;60.49;99455.91;4991469;28;118325;-88
2022/01/16 06:06:05;;;;;;;23.03;12.50;;;2.70;86.80;;;3.15;60.66;99455.69;4974163;28;124455;-89
2022/01/16 06:08:31;;;;;;;18.10;10.60;;;2.70;86.70;;;3.13;60.41;99457.81;4974952;28;123236;-89
2022/01/16 06:10:58;;;;;;;20.30;12.37;;;2.70;86.70;;;3.15;60.84;99461.97;5000779;28;118501;-89
2022/01/16 06:13:25;;;;;;;18.77;12.00;;;2.60;86.60;;;3.16;60.08;99468.25;4992444;28;118666;-87
2022/01/16 06:15:52;;;;;;;18.87;10.60;;;2.70;86.70;;;3.17;60.60;99464.41;4991386;28;124157;-89
2022/01/16 06:18:19;;;;;;;19.00;11.07;;;2.70;86.70;;;3.17;60.50;99480.81;4990121;28;123628;-90
2022/01/16 06:21:06;;;;;;;20.57;12.53;;;2.70;86.60;;;3.15;60.00;99477.50;5005709;28;119183;-88
2022/01/16 06:23:32;;;;;;;31.23;16.07;;;2.70;86.50;;;3.12;60.45;99483.44;4960889;28;117314;-89
2022/01/16 06:26:37;;;;;;;22.77;13.37;;;2.70;86.60;;;3.19;60.48;99484.13;4974677;28;123460;-89
2022/01/16 06:29:23;;;;;;;20.83;12.50;;;2.70;86.90;;;3.24;61.08;99503.31;4991019;28;123479;-88
2022/01/16 06:31:49;;;;;;;17.83;11.40;;;2.70;87.40;;;3.26;60.80;99491.09;4989688;28;119374;-88
2022/01/16 06:34:36;;;;;;;19.10;12.07;;;2.70;87.40;;;3.29;60.73;99489.75;4990875;28;119347;-87
2022/01/16 06:37:21;;;;;;;20.10;12.73;;;2.70;87.20;;;3.26;60.47;99496.53;5009310;28;123584;-89
2022/01/16 06:39:50;;;;;;;20.93;12.40;;;2.70;87.00;;;3.21;60.88;99495.63;4975468;28;124271;-86
2022/01/16 06:42:16;;;;;;;16.83;10.60;;;2.70;86.90;;;3.19;60.47;99500.50;4970816;28;119330;-88
2022/01/16 06:44:43;;;;;;;20.40;12.17;;;2.70;86.80;;;3.18;60.39;99501.59;4974228;28;118143;-88
2022/01/16 06:47:11;;;;;;;17.80;11.37;;;2.70;86.60;;;3.16;60.26;99501.00;4991885;28;123420;-89
2022/01/16 06:49:58;;;;;;;23.90;13.20;;;2.60;86.40;;;3.17;60.42;99505.38;4974683;28;123526;-89
2022/01/16 06:52:25;;;;;;;22.07;12.63;;;2.70;86.40;;;3.10;60.33;99498.19;4994629;28;118596;-88
2022/01/16 06:55:13;;;;;;;22.87;12.20;;;2.60;86.30;;;3.13;60.11;99496.03;4988434;28;118648;-88
2022/01/16 06:57:40;;;;;;;23.33;12.63;;;2.60;86.20;;;3.09;60.27;99491.06;4986265;28;122174;-89
2022/01/16 07:00:09;;;;;;;19.50;11.37;;;2.60;86.20;;;3.12;60.11;99505.28;4992127;28;122019;-88
2022/01/16 07:02:56;;;;;;;22.23;12.73;;;2.60;86.20;;;3.16;59.63;99506.47;4989840;28;119043;-89
2022/01/16 07:06:01;;;;;;;19.97;11.60;;;2.60;86.10;;;3.13;59.66;99515.16;4987490;28;118484;-87
2022/01/16 07:09:06;;;;;;;21.63;13.33;;;2.60;85.90;;;3.10;59.77;99524.66;5008727;28;123597;-88
2022/01/16 07:11:33;;;;;;;22.73;11.60;;;2.60;85.90;;;3.05;59.46;99516.38;4960264;28;122351;-87
2022/01/16 07:14:58;;;;;;;18.87;11.20;;;2.60;85.90;;;3.10;59.88;99530.13;4987791;28;117874;-88
2022/01/16 07:17:24;;;;;;;18.47;11.47;;;2.60;85.80;;;3.04;59.62;99537.38;4982211;28;117357;-89
2022/01/16 07:19:51;;;;;;;21.70;13.20;;;2.50;85.60;;;3.02;59.76;99534.06;4990273;28;123641;-88
2022/01/16 07:22:21;;;;;;;20.87;12.27;;;2.50;85.50;;;3.03;59.61;99524.78;4972118;28;123168;-89
2022/01/16 07:24:51;;;;;;;19.87;12.60;;;2.60;85.60;;;3.06;59.77;99537.97;4988452;28;121009;-89
2022/01/16 07:27:19;;;;;;;23.50;12.30;;;2.60;85.50;;;3.09;59.27;99550.31;4972480;28;119921;-88
2022/01/16 07:29:47;;;;;;;19.97;12.30;;;2.60;85.50;;;3.07;59.07;99552.44;4990766;28;123885;-88
2022/01/16 07:32:14;;;;;;;19.80;11.83;;;2.60;85.40;;;3.06;59.17;99561.69;4990677;28;123374;-89
2022/01/16 07:38:22;;;;;;;19.67;11.93;;;2.50;85.40;;;2.98;59.44;99565.69;4993997;28;120078;-89
2022/01/16 07:40:50;;;;;;;18.97;10.93;;;2.50;85.50;;;2.99;59.83;99564.59;4991978;28;123718;-87
2022/01/16 07:43:55;;;;;;;20.97;11.47;;;2.50;85.50;;;3.04;59.61;99570.16;4993831;28;124490;-87
2022/01/16 07:46:25;;;;;;;18.47;11.80;;;2.50;85.60;;;3.03;59.54;99573.09;4982742;28;119898;-84
2022/01/16 07:49:10;;;;;;;19.23;12.70;;;2.50;85.60;;;3.02;59.47;99572.28;4996091;28;118324;-80
2022/01/16 07:51:37;;;;;;;17.30;11.00;;;2.50;85.30;;;2.97;59.25;99577.66;4968869;28;124949;-82
2022/01/16 07:54:05;;;;;;;19.10;11.70;;;2.60;85.40;;;2.97;59.48;99585.84;4994249;28;123758;-83
2022/01/16 07:56:33;;;;;;;16.00;10.73;;;2.50;85.40;;;2.95;59.33;99582.50;4979312;28;118566;-84
2022/01/16 07:59:00;;;;;;;15.87;9.90;;;2.50;85.40;;;2.98;59.54;99581.19;4983538;28;119768;-82
2022/01/16 08:01:29;;;;;;;17.90;10.70;;;2.50;85.40;;;2.98;59.26;99590.25;4992902;28;123783;-85
2022/01/16 08:04:33;;;;;;;16.10;10.50;;;2.50;85.30;;;2.99;59.12;99600.06;4969508;28;124397;-89
2022/01/16 08:07:00;;;;;;;16.53;10.70;;;2.50;85.20;;;2.95;59.43;99608.97;4988276;28;119019;-89
2022/01/16 08:09:27;;;;;;;18.30;10.67;;;2.50;85.10;;;2.94;59.39;99615.53;4965670;28;117304;-88
2022/01/16 08:12:14;;;;;;;20.00;13.17;;;2.90;85.40;;;2.97;59.06;99617.75;4984383;28;123627;-87
2022/01/16 08:14:42;;;;;;;20.50;12.87;;;2.50;85.10;;;2.88;59.35;99617.31;4980978;28;123653;-88
2022/01/16 08:17:10;;;;;;;19.60;11.60;;;2.40;85.00;;;2.80;59.43;99617.72;4980345;28;120244;-88
2022/01/16 08:19:36;;;;;;;18.87;11.83;;;2.30;85.00;;;2.76;59.31;99611.06;4967328;28;119140;-88
2022/01/16 08:22:03;;;;;;;19.40;12.87;;;2.30;85.20;;;2.76;59.41;99613.78;4980337;28;123387;-88
2022/01/16 08:24:48;;;;;;;18.53;12.10;;;2.30;85.30;;;2.80;59.28;99613.06;4979714;28;122629;-87
2022/01/16 08:27:15;;;;;;;21.10;12.20;;;2.30;85.30;;;2.79;59.32;99622.31;4963013;28;119177;-86
2022/01/16 08:29:43;;;;;;;20.03;12.27;;;2.30;85.40;;;2.83;59.75;99617.22;4985248;28;118249;-87
2022/01/16 08:32:31;;;;;;;22.30;12.00;;;2.40;85.50;;;2.89;59.27;99621.69;4963595;28;123494;-88
2022/01/16 08:35:36;;;;;;;20.20;12.40;;;2.40;85.50;;;2.91;59.59;99619.56;4981032;28;122352;-88
2022/01/16 08:38:26;;;;;;;19.20;11.00;;;2.40;85.60;;;2.95;59.64;99619.91;4956683;28;118853;-89
2022/01/16 08:41:11;;;;;;;19.43;11.07;;;2.40;85.80;;;3.03;59.73;99620.34;4967546;28;118843;-89
2022/01/16 08:43:39;;;;;;;20.17;11.97;;;2.50;86.00;;;3.03;60.14;99634.00;4971095;28;123410;-89
2022/01/16 08:46:07;;;;;;;17.53;11.23;;;2.50;86.10;;;3.08;59.85;99631.38;4970384;28;124498;-88
2022/01/16 08:48:34;;;;;;;22.50;12.50;;;2.50;86.10;;;3.15;59.88;99633.97;4973462;28;117821;-88
2022/01/16 08:54:44;;;;;;;19.17;11.43;;;2.60;86.20;;;3.22;59.45;99642.00;4970039;28;124388;-88
2022/01/16 08:57:50;;;;;;;22.63;13.23;;;2.70;86.30;;;3.31;59.92;99643.28;4975690;28;121511;-89
2022/01/16 09:03:58;;;;;;;23.93;12.70;;;2.80;86.20;;;3.31;60.89;99652.31;4987957;28;119511;-88
2022/01/16 09:06:27;;;;;;;24.60;13.50;;;2.80;87.40;;;3.39;60.91;99656.53;4961016;28;122888;-89
2022/01/16 09:09:14;;;;;;;19.10;11.90;;;2.80;87.40;;;3.50;60.81;99665.75;4990881;28;123329;-87
2022/01/16 09:11:59;;;;;;;19.60;13.10;;;2.90;87.80;;;3.60;60.44;99659.63;4989985;28;120720;-89
2022/01/16 09:18:08;;;;;;;18.77;12.57;;;3.00;87.80;;;3.70;60.42;99676.22;4993029;28;125054;-87
2022/01/16 09:20:57;;;;;;;19.63;12.40;;;3.10;87.60;;;3.76;60.28;99687.03;4993887;28;123460;-87
2022/01/16 09:34:03;;;;;;;17.20;11.83;;;2.60;86.10;;;3.87;59.40;99677.09;4978751;28;124729;-87
2022/01/16 09:40:18;;;;;;;23.00;13.17;;;3.10;86.20;;;3.93;59.35;99686.22;4976999;28;120179;-79
2022/01/16 09:42:47;;;;;;;18.53;12.27;;;3.00;86.10;;;3.98;59.33;99689.03;4968488;28;124592;-88
2022/01/16 09:45:18;;;;;;;20.67;12.03;;;3.40;86.50;;;4.02;58.62;99689.34;4974657;28;123387;-88
2022/01/16 09:48:05;;;;;;;23.30;13.10;;;3.10;85.80;;;4.05;58.95;99699.78;4981025;28;120085;-88
2022/01/16 09:50:34;;;;;;;20.77;12.27;;;3.40;85.80;;;4.04;58.93;99700.88;4962497;28;118930;-87
2022/01/16 09:53:56;;;;;;;18.93;11.37;;;3.30;85.80;;;4.13;58.84;99708.41;4968035;28;123311;-87
2022/01/16 09:56:44;;;;;;;24.63;15.03;;;2.20;84.70;;;4.14;58.52;99704.63;4979413;28;122560;-89
2022/01/16 09:59:29;;;;;;;23.80;12.90;;;3.40;85.60;;;4.19;58.81;99706.59;4960226;28;119316;-87
2022/01/16 10:01:58;;;;;;;20.30;12.10;;;3.10;85.30;;;4.17;58.26;99698.66;4975020;28;118460;-87
2022/01/16 10:04:42;;;;;;;19.57;12.33;;;3.40;85.60;;;4.25;58.37;99715.75;4973146;28;123379;-87
2022/01/16 10:07:28;;;;;;;18.47;11.30;;;3.50;85.50;;;4.28;58.67;99717.97;4987091;28;122834;-87
2022/01/16 10:10:16;;;;;;;20.83;12.97;;;5.20;86.70;;;4.31;58.10;99714.72;4963926;28;118607;-87
2022/01/16 10:12:51;;;;;;;24.53;14.80;;;3.50;85.30;;;4.27;58.31;99717.16;4972124;28;119059;-86
2022/01/16 10:15:24;;;;;;;23.37;13.30;;;4.90;86.10;;;4.25;58.08;99716.56;4956657;28;122870;-88
2022/01/16 10:17:55;;;;;;;21.20;12.90;;;2.30;83.70;;;4.21;57.87;99715.38;4978015;28;123226;-87
2022/01/16 10:20:23;;;;;;;24.20;14.77;;;4.20;85.50;;;4.22;58.05;99706.13;4975877;28;120158;-87
2022/01/16 10:23:01;;;;;;;19.93;12.63;;;3.20;84.50;;;4.29;57.91;99700.47;4963908;28;117769;-89
2022/01/16 10:25:45;;;;;;;22.50;13.80;;;3.70;84.90;;;4.34;58.00;99701.38;4952517;28;123123;-88
2022/01/16 10:28:18;;;;;;;24.13;14.07;;;5.00;86.10;;;4.30;57.68;99697.50;4952890;28;122140;-89
2022/01/16 10:30:58;;;;;;;22.00;13.30;;;3.70;84.80;;;4.31;57.51;99696.41;4969660;28;120482;-87
2022/01/16 10:33:28;;;;;;;24.03;14.07;;;4.10;84.90;;;4.34;57.77;99698.63;4968744;28;118073;-87
2022/01/16 10:36:36;;;;;;;21.93;13.53;;;3.70;85.00;;;4.41;57.48;99702.03;4961699;28;123959;-88
2022/01/16 10:39:11;;;;;;;21.70;13.30;;;3.10;84.20;;;4.43;57.62;99693.56;4943120;28;122442;-88
2022/01/16 10:41:39;;;;;;;24.70;13.30;;;4.10;85.20;;;4.45;58.18;99683.22;4942879;28;118220;-88
2022/01/16 10:44:28;;;;;;;18.60;12.63;;;4.70;85.50;;;4.52;58.06;99699.47;4947433;28;117342;-89
2022/01/16 10:46:57;;;;;;;20.73;12.70;;;3.90;84.70;;;4.56;57.93;99706.91;4936756;28;123231;-88
2022/01/16 10:49:24;;;;;;;21.60;13.00;;;4.00;84.80;;;4.63;57.61;99707.56;4956660;28;124709;-86
2022/01/16 10:52:11;;;;;;;20.40;11.97;;;5.30;85.90;;;4.75;57.60;99715.66;4960606;28;119137;-88
2022/01/16 10:54:41;;;;;;;20.63;13.30;;;4.00;84.70;;;4.80;57.35;99723.13;4962733;28;119401;-88
2022/01/16 10:57:27;;;;;;;24.97;15.07;;;4.10;84.90;;;4.88;57.05;99734.47;4954930;28;124975;-88
2022/01/16 11:00:17;;;;;;;22.00;14.07;;;4.20;84.40;;;4.86;57.33;99722.97;4955730;28;123593;-89
2022/01/16 11:02:48;;;;;;;21.07;12.73;;;4.20;84.30;;;4.85;57.05;99721.28;4939038;28;120025;-88
2022/01/16 11:05:21;;;;;;;28.30;14.63;;;4.20;84.20;;;4.92;56.75;99736.75;4959014;28;119136;-87
2022/01/16 11:08:12;;;;;;;23.57;14.57;;;4.20;84.30;;;4.98;57.60;99730.25;4956556;28;123186;-87
2022/01/16 11:10:43;;;;;;;27.50;14.90;;;5.90;85.70;;;4.98;57.36;99725.59;4942119;28;123794;-88
2022/01/16 11:13:19;;;;;;;22.83;14.23;;;4.20;84.10;;;5.01;57.12;99719.59;4958683;28;118295;-88
2022/01/16 11:15:52;;;;;;;22.63;13.90;;;4.40;84.20;;;5.04;57.23;99723.75;4956542;28;118595;-88
2022/01/16 11:18:22;;;;;;;25.83;15.10;;;3.70;83.70;;;5.06;57.00;99729.81;4933719;28;123978;-87
2022/01/16 11:23:33;;;;;;;21.93;13.90;;;4.40;84.10;;;5.09;56.70;99723.81;4943459;28;119393;-88
2022/01/16 11:26:03;;;;;;;23.47;13.10;;;6.10;85.50;;;5.14;57.26;99732.09;4934275;28;118195;-88
2022/01/16 11:28:30;;;;;;;21.77;14.93;;;4.50;84.00;;;5.19;56.12;99732.19;4934451;28;122948;-87
2022/01/16 11:31:03;;;;;;;24.67;14.67;;;5.10;84.30;;;5.21;56.46;99729.16;4956923;28;122916;-86
2022/01/16 11:33:33;;;;;;;21.63;13.40;;;6.00;85.00;;;5.22;56.91;99730.84;4946710;28;119100;-87
2022/01/16 11:36:21;;;;;;;21.87;13.67;;;5.20;84.30;;;5.30;56.60;99728.47;4957008;28;118915;-88
2022/01/16 11:38:53;;;;;;;20.40;12.90;;;4.70;83.80;;;5.33;56.49;99732.63;4955094;28;123187;-89
2022/01/16 11:41:34;;;;;;;22.93;13.07;;;6.10;85.00;;;5.36;56.32;99743.06;4944437;28;123593;-88
2022/01/16 11:44:06;;;;;;;24.50;14.83;;;4.70;83.70;;;5.39;56.71;99739.81;4949203;28;119277;-88
2022/01/16 11:46:51;;;;;;;18.90;12.70;;;4.70;83.70;;;5.47;56.45;99744.03;4932527;28;117947;-87
2022/01/16 11:49:38;;;;;;;25.73;13.67;;;4.80;83.80;;;5.50;56.77;99743.50;4923189;28;123634;-88
2022/01/16 11:52:14;;;;;;;30.17;17.70;;;4.10;83.00;;;5.49;56.23;99744.59;4964932;28;121913;-88
2022/01/16 11:54:51;;;;;;;25.00;14.80;;;6.40;84.70;;;5.45;56.02;99743.44;4938046;28;120578;-88
2022/01/16 11:57:26;;;;;;;24.33;14.27;;;4.80;83.40;;;5.43;56.98;99742.88;4926869;28;119635;-88
2022/01/16 12:00:09;;;;;;;29.33;16.90;;;4.70;83.50;;;5.44;56.35;99736.31;4937177;28;122605;-88
2022/01/16 12:02:59;;;;;;;24.93;14.63;;;4.80;83.70;;;5.46;57.29;99739.63;4950264;28;124592;-88
2022/01/16 12:05:28;;;;;;;24.93;15.30;;;4.80;83.90;;;5.39;57.84;99748.03;4949798;28;118169;-88
2022/01/16 12:08:19;;;;;;;32.63;17.27;;;4.90;84.30;;;5.40;57.95;99754.34;4957823;28;119311;-88
2022/01/16 12:11:54;;;;;;;37.40;21.10;;;4.80;84.40;;;5.28;58.59;99757.22;4952268;28;124676;-90
2022/01/16 12:15:20;;;;;;;34.10;18.03;;;4.80;85.10;;;5.14;58.64;99745.81;4969570;28;122870;-88
2022/01/16 12:17:49;;;;;;;33.10;17.27;;;4.60;85.20;;;5.05;59.25;99736.34;4963225;28;118624;-89
2022/01/16 12:20:16;;;;;;;35.10;18.50;;;6.10;87.40;;;5.05;59.75;99742.69;4954348;28;118958;-86
2022/01/16 12:23:08;;;;;;;39.53;19.93;;;6.40;88.10;;;5.02;59.54;99751.41;4947394;28;123850;-89
2022/01/16 12:25:51;;;;;;;29.80;17.17;;;3.50;85.60;;;5.01;59.36;99737.94;4942265;28;123181;-89
2022/01/16 12:28:24;;;;;;;30.47;16.87;;;6.30;88.20;;;4.96;59.71;99732.41;4931545;28;118355;-88